Awendaw, SC

3:40 AM EDT on September 02, 2014 (GMT -0400)
Mount Pleasant | Change Station
CLOSE
Current Station
Airport
Location: Mount Pleasant,
Elevation: 13 ft
Nearby Weather Stations

Elev 13 ft 32.90 °N, 79.78 °W | Updated 5 minutes ago

Clear
Clear
79 °F
Feels Like 79 °F
N
0
Wind Variable Wind from North

Today
High -- | Low -- °F
--% Chance of Precip.
Yesterday
High -- | Low -- °F
Precip. -- in
6:53 AM 7:42 PM
Waxing Crescent, 49% visible
Pressure 30.06 in
Visibility 5.0 miles
Clouds Clear
Dew Point 77 °F
Humidity 94%
Rainfall 0.00 in
Snow Depth Not available.
UV 0 out of 12
Pollen 8.60 out of 12
Air Quality Not available.
Flu Activity Not available.
METAR KLRO 020735Z AUTO 00000KT 5SM BR CLR 26/25 A3006 RMK AO2

More Conditions Fewer Conditions

Pressure 30.06 in
Visibility 5.0 miles
Clouds Clear
Dew Point 77 °F
Humidity 94%
Rainfall 0.00 in
Snow Depth Not available.
UV 0 out of 12
Pollen 8.60 out of 12
Air Quality Not available.
Flu Activity Not available.
METAR KLRO 020735Z AUTO 00000KT 5SM BR CLR 26/25 A3006 RMK AO2

More Conditions Fewer Conditions

10-Day Weather Forecast

Almanac

Astronomy

Sep. 02, 2014 Rise Set
Actual Time 6:53 AM EDT 7:42 PM EDT
Civil Twilight 6:28 AM EDT 8:07 PM EDT
Nautical Twilight 5:59 AM EDT 8:37 PM EDT
Astronomical Twilight 5:28 AM EDT 9:07 PM EDT
Moon 2:14 PM EDT 12:04 AM EDT
Length of Visible Light 13h 38m
Length of Day
12h 48m
Tomorrow will be 1m 57s shorter.
Waxing Crescent, 49% of the Moon is Illuminated
Today
Waxing Crescent
Sep 2
First Quarter
Sep 8
Full
Sep 15
Last Quarter
Sep 24
New

Today's Extremes

State Highs State Lows

Community

WunderPhotos

Upload Photos

1,749,589 photos uploaded!

WunderBlogs® & News

Nearby

Air Quality

  Air Quality AQ Index Pollutant
Yesterday Moderate
PM2.5
Yesterday Good
OZONE
Tuesday Good
OZONE

Snow Depth

Station Depth Elevation
No new snow has been reported.

Earthquake Activity

City Distance Mag. Time & Date
No recent earthquake activity has been reported nearby.
Minimum magnitude displayed is 2.5.

Coastal Water Temperatures

Place Temperature
No Stations Reporting

Nearby Weather Stations